Mississippi Star — 9HA2441 — position and weather

sailwx.info

Track history (hours):
 
Tides and Currents Weather Stations Pressure Air Temp Water Temp Dewpoint Dewpoint Depression Visibility Wind Speed Wind Dir Waves Ship Positions

Mississippi Star

Last reported at 2015-Apr-28 11:24 UTC. Time now 2015-Apr-28 11:51 UTC.
Position N 51°52' E 004°19'.

Length 128 m; draft 6 m.

Type: Ship. MMSI: 248621000.

Date/timePositionNaut miles runAvg speedWind from/ knotsBaromVisibWave heightAir tempDewpointWater temp
2015-Apr-28 11:24N 51°52' E 004°19'0 0.0
2015-Apr-28 10:33N 51°52' E 004°19'0 0.0
2015-Apr-28 09:33N 51°52' E 004°19'0 0.0
2015-Apr-28 08:33N 51°52' E 004°19'0 0.0
2015-Apr-28 07:33N 51°52' E 004°19'0 0.0
2015-Apr-28 06:29N 51°52' E 004°19'0 0.0
2015-Apr-28 02:26N 51°52' E 004°19'0 0.0
2015-Apr-27 22:18N 51°52' E 004°19'3 3.4
2015-Apr-27 21:33N 51°54' E 004°16'1110.7
2015-Apr-27 20:33N 51°60' E 004°01'1010.4
2015-Apr-27 19:33N 51°58' E 003°44'2 2.0
2015-Apr-27 18:26N 51°57' E 003°42'0 0.0
2015-Apr-27 17:17N 51°57' E 003°42'0 0.0
2015-Apr-27 16:29N 51°57' E 003°42'0 0.0
2015-Apr-27 15:29N 51°57' E 003°42'0 0.0
2015-Apr-27 14:17N 51°56' E 003°42'0 0.0
2015-Apr-27 13:29N 51°56' E 003°42'0 0.0
2015-Apr-27 12:32N 51°56' E 003°42'0 0.0
2015-Apr-27 11:32N 51°57' E 003°42'0 0.1
2015-Apr-27 09:32N 51°57' E 003°42'0 0.0
2015-Apr-27 08:26N 51°57' E 003°42'0 0.0
2015-Apr-27 07:32N 51°57' E 003°42'0 0.1
2015-Apr-27 06:32N 51°57' E 003°42'0 0.0
2015-Apr-27 05:29N 51°57' E 003°42'0 0.0
2015-Apr-27 04:32N 51°57' E 003°42'0 0.0
2015-Apr-27 03:32N 51°57' E 003°42'0 0.0
2015-Apr-27 02:32N 51°57' E 003°42'0 0.0
2015-Apr-27 01:32N 51°57' E 003°42'0 0.0
2015-Apr-27 00:29N 51°57' E 003°42'0 0.0
2015-Apr-26 23:32N 51°56' E 003°42'0 0.0
2015-Apr-26 22:32N 51°57' E 003°42'0 0.1
2015-Apr-26 20:20N 51°57' E 003°42'0 0.1
2015-Apr-26 19:29N 51°57' E 003°42'0 0.1
2015-Apr-26 18:23N 51°56' E 003°42'0 0.0
2015-Apr-26 17:29N 51°56' E 003°42'0 0.0
2015-Apr-26 16:29N 51°57' E 003°42'0 0.3
2015-Apr-26 15:33N 51°57' E 003°42'10 9.7
2015-Apr-26 14:32N 51°55' E 003°26'5511.1
2015-Apr-26 09:33N 51°38' E 002°01'1212.1
2015-Apr-26 08:33N 51°33' E 001°44'1212.2
2015-Apr-26 07:34N 51°28' E 001°26'1313.0
2015-Apr-26 06:33N 51°30' E 001°05'1211.9
2015-Apr-26 05:32N 51°27' E 000°46'4 3.4
2015-Apr-26 04:30N 51°26' E 000°41'0 0.0
2015-Apr-26 03:33N 51°26' E 000°41'0 0.0
2015-Apr-26 02:33N 51°26' E 000°41'0 0.0
2015-Apr-26 01:15N 51°26' E 000°41'0 0.0
2015-Apr-25 23:15N 51°26' E 000°41'0 0.0
2015-Apr-25 22:21N 51°26' E 000°41'0 0.0
2015-Apr-25 21:27N 51°26' E 000°41'0 0.0
2015-Apr-25 20:27N 51°26' E 000°41'0 0.0
2015-Apr-25 19:33N 51°26' E 000°41'0 0.0
2015-Apr-25 18:27N 51°26' E 000°41'0 0.0
2015-Apr-25 17:33N 51°26' E 000°41'0 0.0
2015-Apr-25 16:27N 51°26' E 000°41'0 0.0
2015-Apr-25 15:33N 51°26' E 000°41'0 0.0
2015-Apr-25 14:27N 51°26' E 000°41'0 0.0
2015-Apr-25 13:28N 51°26' E 000°41'0 0.1
2015-Apr-25 12:33N 51°26' E 000°41'7 7.4
2015-Apr-25 11:33N 51°29' E 000°52'1010.0
2015-Apr-25 10:33N 51°29' E 001°08'10 9.7
2015-Apr-25 09:33N 51°28' E 001°23'5 5.2
2015-Apr-25 08:33N 51°27' E 001°31'5 4.8
2015-Apr-25 07:33N 51°32' E 001°32'0 0.0
2015-Apr-25 06:33N 51°32' E 001°32'0 0.0
2015-Apr-25 05:33N 51°32' E 001°32'0 0.1
2015-Apr-25 04:33N 51°32' E 001°32'0 0.0
2015-Apr-25 03:33N 51°32' E 001°31'0 0.0
2015-Apr-25 02:33N 51°32' E 001°31'0 0.0
2015-Apr-25 01:33N 51°32' E 001°31'0 0.0
2015-Apr-25 00:33N 51°32' E 001°31'0 0.0
2015-Apr-24 23:33N 51°32' E 001°32'0 0.1
2015-Apr-24 22:33N 51°32' E 001°32'0 0.1
2015-Apr-24 21:33N 51°32' E 001°32'0 0.0
2015-Apr-24 20:33N 51°32' E 001°32'0 0.0
2015-Apr-24 19:33N 51°32' E 001°32'0 0.0
2015-Apr-24 18:33N 51°32' E 001°32'5 4.9
2015-Apr-24 17:33N 51°34' E 001°39'9 8.8
2015-Apr-24 16:33N 51°42' E 001°46'9 8.6
2015-Apr-24 15:34N 51°35' E 001°54'1010.1
2015-Apr-24 14:33N 51°36' E 002°10'1312.5
2015-Apr-24 13:33N 51°46' E 002°23'1313.3
2015-Apr-24 12:33N 51°57' E 002°34'1313.4
2015-Apr-24 11:33N 52°10' E 002°43'1312.7
2015-Apr-24 10:33N 52°22' E 002°49'1311.9
2015-Apr-24 09:30N 52°33' E 002°56'1311.1
2015-Apr-24 08:17N 52°46' E 003°04'2210.5
2015-Apr-24 06:14N 53°06' E 003°17'910.5
2015-Apr-24 05:23N 53°14' E 003°25'1011.4
2015-Apr-24 04:30N 53°23' E 003°30'3411.4
2015-Apr-24 01:28N 53°52' E 004°01'1111.6
2015-Apr-24 00:29N 54°00' E 004°15'1111.5
2015-Apr-23 23:33N 54°09' E 004°26'1711.4
2015-Apr-23 22:05N 54°23' E 004°41'611.4
2015-Apr-23 21:33N 54°28' E 004°48'1211.5
2015-Apr-23 20:33N 54°37' E 004°59'2411.9
2015-Apr-23 18:33N 54°57' E 005°22'1211.8
2015-Apr-23 17:33N 55°06' E 005°34'1211.6
2015-Apr-23 16:33N 55°16' E 005°45'21011.1
2015-Apr-22 21:33N 57°51' E 010°03'1111.3
2015-Apr-22 20:33N 57°57' E 010°20'1111.2
2015-Apr-22 19:33N 58°03' E 010°38'1111.0
2015-Apr-22 18:33N 58°09' E 010°56'1110.9
2015-Apr-22 17:33N 58°15' E 011°14'9 9.0
2015-Apr-22 16:33N 58°21' E 011°26'0 0.1
2015-Apr-22 15:29N 58°21' E 011°26'0 0.0
2015-Apr-22 14:23N 58°21' E 011°26'0 0.0
2015-Apr-22 13:14N 58°21' E 011°26'0 0.0
2015-Apr-22 12:29N 58°21' E 011°26'0 0.0
2015-Apr-22 11:32N 58°21' E 011°26'0 0.0
2015-Apr-22 10:32N 58°21' E 011°26'0 0.0
2015-Apr-22 09:26N 58°21' E 011°26'0 0.0
2015-Apr-22 08:32N 58°21' E 011°26'0 0.0
2015-Apr-22 07:23N 58°21' E 011°26'0 0.0
2015-Apr-22 06:32N 58°21' E 011°26'0 0.0
2015-Apr-22 05:32N 58°21' E 011°26'0 0.0
2015-Apr-22 04:26N 58°21' E 011°26'0 0.0
2015-Apr-22 03:32N 58°21' E 011°26'0 0.0
2015-Apr-22 02:32N 58°21' E 011°26'0 0.0
2015-Apr-22 01:17N 58°21' E 011°26'0 0.0
2015-Apr-22 00:32N 58°21' E 011°26'0 0.0
2015-Apr-21 23:26N 58°21' E 011°26'0 0.0
2015-Apr-21 22:32N 58°21' E 011°26'0 0.0
2015-Apr-21 21:32N 58°21' E 011°26'0 0.0
2015-Apr-21 20:32N 58°21' E 011°26'0 0.0
2015-Apr-21 19:32N 58°21' E 011°26'0 0.0
2015-Apr-21 18:32N 58°21' E 011°26'0 0.0
2015-Apr-21 17:32N 58°21' E 011°26'0 0.0
2015-Apr-21 16:23N 58°21' E 011°26'0 0.0
2015-Apr-21 15:32N 58°21' E 011°26'0 0.0
2015-Apr-21 14:32N 58°21' E 011°26'0 0.0
2015-Apr-21 13:32N 58°21' E 011°26'0 0.0
2015-Apr-21 12:32N 58°21' E 011°26'0 0.0
2015-Apr-21 11:32N 58°21' E 011°26'0 0.0
2015-Apr-21 10:32N 58°21' E 011°26'0 0.0
2015-Apr-21 09:32N 58°21' E 011°26'0 0.0
2015-Apr-21 08:32N 58°21' E 011°26'0 0.0
2015-Apr-21 07:32N 58°21' E 011°26'0 0.0
2015-Apr-21 06:29N 58°21' E 011°26'0 0.0
2015-Apr-21 05:29N 58°21' E 011°26'0 0.0
2015-Apr-21 04:31N 58°21' E 011°26'0 0.0
2015-Apr-21 03:32N 58°21' E 011°26'0 0.0
2015-Apr-21 02:29N 58°21' E 011°26'0 0.0
2015-Apr-21 00:29N 58°21' E 011°26'0 0.0
2015-Apr-20 23:29N 58°21' E 011°26'0 0.0
2015-Apr-20 22:32N 58°21' E 011°26'0 0.0
2015-Apr-20 21:16N 58°21' E 011°26'0 0.0
2015-Apr-20 20:32N 58°21' E 011°26'0 0.0
2015-Apr-20 19:32N 58°21' E 011°26'0 0.0
2015-Apr-20 18:26N 58°21' E 011°26'0 0.0
2015-Apr-20 17:32N 58°21' E 011°26'0 0.0
2015-Apr-20 16:32N 58°21' E 011°26'0 0.0
2015-Apr-20 15:28N 58°21' E 011°26'0 0.0
2015-Apr-20 14:32N 58°21' E 011°26'0 0.0
2015-Apr-20 13:17N 58°21' E 011°26'0 0.0
2015-Apr-20 12:28N 58°21' E 011°26'0 0.0
2015-Apr-20 11:29N 58°21' E 011°26'0 0.0
2015-Apr-20 10:29N 58°21' E 011°26'0 0.0
2015-Apr-20 09:31N 58°21' E 011°26'0 0.0
2015-Apr-20 08:28N 58°21' E 011°26'0 0.0
2015-Apr-20 07:31N 58°21' E 011°26'0 0.0
2015-Apr-20 06:32N 58°21' E 011°26'0 0.0
2015-Apr-20 05:28N 58°21' E 011°26'0 0.0
2015-Apr-20 04:31N 58°21' E 011°26'0 0.0
2015-Apr-20 03:31N 58°21' E 011°26'0 0.0
2015-Apr-20 02:31N 58°21' E 011°26'0 0.0
2015-Apr-20 01:13N 58°21' E 011°26'0 0.0
2015-Apr-20 00:28N 58°21' E 011°26'0 0.0
2015-Apr-19 23:19N 58°21' E 011°26'0 0.0
2015-Apr-19 22:31N 58°21' E 011°26'0 0.0
2015-Apr-19 21:28N 58°21' E 011°26'0 0.0
2015-Apr-19 20:31N 58°21' E 011°26'0 0.0
2015-Apr-19 19:31N 58°21' E 011°26'0 0.0
2015-Apr-19 18:31N 58°21' E 011°26'0 0.0
2015-Apr-19 17:28N 58°21' E 011°26'0 0.0
2015-Apr-19 16:28N 58°21' E 011°26'0 0.0
2015-Apr-19 15:28N 58°21' E 011°26'0 0.0
2015-Apr-19 14:28N 58°21' E 011°26'0 0.0
2015-Apr-19 13:16N 58°21' E 011°26'0 0.0
2015-Apr-19 12:28N 58°21' E 011°26'0 0.0
2015-Apr-19 11:26N 58°21' E 011°26'2 1.8
2015-Apr-19 10:33N 58°20' E 011°24'1111.1
2015-Apr-19 09:33N 58°11' E 011°12'0 0.1
2015-Apr-19 08:31N 58°11' E 011°12'0 0.0
2015-Apr-19 07:31N 58°11' E 011°12'0 0.0
2015-Apr-19 06:31N 58°11' E 011°12'0 0.0
2015-Apr-19 05:31N 58°11' E 011°12'0 0.0
2015-Apr-19 04:31N 58°11' E 011°12'0 0.0
2015-Apr-19 03:31N 58°11' E 011°12'0 0.0
2015-Apr-19 02:31N 58°11' E 011°12'0 0.0
2015-Apr-19 01:28N 58°11' E 011°12'0 0.0
2015-Apr-19 00:31N 58°11' E 011°12'0 0.0
2015-Apr-18 23:31N 58°11' E 011°12'0 0.0
2015-Apr-18 22:31N 58°11' E 011°12'0 0.0
2015-Apr-18 21:31N 58°11' E 011°12'0 0.0
2015-Apr-18 20:31N 58°11' E 011°12'0 0.0
2015-Apr-18 19:31N 58°11' E 011°12'0 0.0
2015-Apr-18 18:31N 58°11' E 011°12'0 0.0
2015-Apr-18 17:31N 58°11' E 011°12'0 0.0
2015-Apr-18 16:31N 58°11' E 011°12'0 0.0
2015-Apr-18 15:31N 58°11' E 011°12'0 0.0
2015-Apr-18 14:31N 58°11' E 011°12'0 0.0
2015-Apr-18 13:25N 58°11' E 011°12'0 0.0
2015-Apr-18 12:31N 58°11' E 011°12'0 0.0
2015-Apr-18 11:31N 58°11' E 011°12'  
Track history (hours):
 
Tides and Currents Weather Stations Pressure Air Temp Water Temp Dewpoint Dewpoint Depression Visibility Wind Speed Wind Dir Waves Ship Positions

Mississippi Star

Last reported at 2015-Apr-28 11:24 UTC. Time now 2015-Apr-28 11:51 UTC.
Position N 51°52' E 004°19'.

Length 128 m; draft 6 m.

Type: Ship. MMSI: 248621000.

Date/timePositionNaut miles runAvg speedWind from/ knotsBaromVisibWave heightAir tempDewpointWater temp
2015-Apr-28 11:24N 51°52' E 004°19'0 0.0
2015-Apr-28 10:33N 51°52' E 004°19'0 0.0
2015-Apr-28 09:33N 51°52' E 004°19'0 0.0
2015-Apr-28 08:33N 51°52' E 004°19'0 0.0
2015-Apr-28 07:33N 51°52' E 004°19'0 0.0
2015-Apr-28 06:29N 51°52' E 004°19'0 0.0
2015-Apr-28 02:26N 51°52' E 004°19'0 0.0
2015-Apr-27 22:18N 51°52' E 004°19'3 3.4
2015-Apr-27 21:33N 51°54' E 004°16'1110.7
2015-Apr-27 20:33N 51°60' E 004°01'1010.4
2015-Apr-27 19:33N 51°58' E 003°44'2 2.0
2015-Apr-27 18:26N 51°57' E 003°42'0 0.0
2015-Apr-27 17:17N 51°57' E 003°42'0 0.0
2015-Apr-27 16:29N 51°57' E 003°42'0 0.0
2015-Apr-27 15:29N 51°57' E 003°42'0 0.0
2015-Apr-27 14:17N 51°56' E 003°42'0 0.0
2015-Apr-27 13:29N 51°56' E 003°42'0 0.0
2015-Apr-27 12:32N 51°56' E 003°42'0 0.0
2015-Apr-27 11:32N 51°57' E 003°42'0 0.1
2015-Apr-27 09:32N 51°57' E 003°42'0 0.0
2015-Apr-27 08:26N 51°57' E 003°42'0 0.0
2015-Apr-27 07:32N 51°57' E 003°42'0 0.1
2015-Apr-27 06:32N 51°57' E 003°42'0 0.0
2015-Apr-27 05:29N 51°57' E 003°42'0 0.0
2015-Apr-27 04:32N 51°57' E 003°42'0 0.0
2015-Apr-27 03:32N 51°57' E 003°42'0 0.0
2015-Apr-27 02:32N 51°57' E 003°42'0 0.0
2015-Apr-27 01:32N 51°57' E 003°42'0 0.0
2015-Apr-27 00:29N 51°57' E 003°42'0 0.0
2015-Apr-26 23:32N 51°56' E 003°42'0 0.0
2015-Apr-26 22:32N 51°57' E 003°42'0 0.1
2015-Apr-26 20:20N 51°57' E 003°42'0 0.1
2015-Apr-26 19:29N 51°57' E 003°42'0 0.1
2015-Apr-26 18:23N 51°56' E 003°42'0 0.0
2015-Apr-26 17:29N 51°56' E 003°42'0 0.0
2015-Apr-26 16:29N 51°57' E 003°42'0 0.3
2015-Apr-26 15:33N 51°57' E 003°42'10 9.7
2015-Apr-26 14:32N 51°55' E 003°26'5511.1
2015-Apr-26 09:33N 51°38' E 002°01'1212.1
2015-Apr-26 08:33N 51°33' E 001°44'1212.2
2015-Apr-26 07:34N 51°28' E 001°26'1313.0
2015-Apr-26 06:33N 51°30' E 001°05'1211.9
2015-Apr-26 05:32N 51°27' E 000°46'4 3.4
2015-Apr-26 04:30N 51°26' E 000°41'0 0.0
2015-Apr-26 03:33N 51°26' E 000°41'0 0.0
2015-Apr-26 02:33N 51°26' E 000°41'0 0.0
2015-Apr-26 01:15N 51°26' E 000°41'0 0.0
2015-Apr-25 23:15N 51°26' E 000°41'0 0.0
2015-Apr-25 22:21N 51°26' E 000°41'0 0.0
2015-Apr-25 21:27N 51°26' E 000°41'0 0.0
2015-Apr-25 20:27N 51°26' E 000°41'0 0.0
2015-Apr-25 19:33N 51°26' E 000°41'0 0.0
2015-Apr-25 18:27N 51°26' E 000°41'0 0.0
2015-Apr-25 17:33N 51°26' E 000°41'0 0.0
2015-Apr-25 16:27N 51°26' E 000°41'0 0.0
2015-Apr-25 15:33N 51°26' E 000°41'0 0.0
2015-Apr-25 14:27N 51°26' E 000°41'0 0.0
2015-Apr-25 13:28N 51°26' E 000°41'0 0.1
2015-Apr-25 12:33N 51°26' E 000°41'7 7.4
2015-Apr-25 11:33N 51°29' E 000°52'1010.0
2015-Apr-25 10:33N 51°29' E 001°08'10 9.7
2015-Apr-25 09:33N 51°28' E 001°23'5 5.2
2015-Apr-25 08:33N 51°27' E 001°31'5 4.8
2015-Apr-25 07:33N 51°32' E 001°32'0 0.0
2015-Apr-25 06:33N 51°32' E 001°32'0 0.0
2015-Apr-25 05:33N 51°32' E 001°32'0 0.1
2015-Apr-25 04:33N 51°32' E 001°32'0 0.0
2015-Apr-25 03:33N 51°32' E 001°31'0 0.0
2015-Apr-25 02:33N 51°32' E 001°31'0 0.0
2015-Apr-25 01:33N 51°32' E 001°31'0 0.0
2015-Apr-25 00:33N 51°32' E 001°31'0 0.0
2015-Apr-24 23:33N 51°32' E 001°32'0 0.1
2015-Apr-24 22:33N 51°32' E 001°32'0 0.1
2015-Apr-24 21:33N 51°32' E 001°32'0 0.0
2015-Apr-24 20:33N 51°32' E 001°32'0 0.0
2015-Apr-24 19:33N 51°32' E 001°32'0 0.0
2015-Apr-24 18:33N 51°32' E 001°32'5 4.9
2015-Apr-24 17:33N 51°34' E 001°39'9 8.8
2015-Apr-24 16:33N 51°42' E 001°46'9 8.6
2015-Apr-24 15:34N 51°35' E 001°54'1010.1
2015-Apr-24 14:33N 51°36' E 002°10'1312.5
2015-Apr-24 13:33N 51°46' E 002°23'1313.3
2015-Apr-24 12:33N 51°57' E 002°34'1313.4
2015-Apr-24 11:33N 52°10' E 002°43'1312.7
2015-Apr-24 10:33N 52°22' E 002°49'1311.9
2015-Apr-24 09:30N 52°33' E 002°56'1311.1
2015-Apr-24 08:17N 52°46' E 003°04'2210.5
2015-Apr-24 06:14N 53°06' E 003°17'910.5
2015-Apr-24 05:23N 53°14' E 003°25'1011.4
2015-Apr-24 04:30N 53°23' E 003°30'3411.4
2015-Apr-24 01:28N 53°52' E 004°01'1111.6
2015-Apr-24 00:29N 54°00' E 004°15'1111.5
2015-Apr-23 23:33N 54°09' E 004°26'1711.4
2015-Apr-23 22:05N 54°23' E 004°41'611.4
2015-Apr-23 21:33N 54°28' E 004°48'1211.5
2015-Apr-23 20:33N 54°37' E 004°59'2411.9
2015-Apr-23 18:33N 54°57' E 005°22'1211.8
2015-Apr-23 17:33N 55°06' E 005°34'1211.6
2015-Apr-23 16:33N 55°16' E 005°45'21011.1
2015-Apr-22 21:33N 57°51' E 010°03'1111.3
2015-Apr-22 20:33N 57°57' E 010°20'1111.2
2015-Apr-22 19:33N 58°03' E 010°38'1111.0
2015-Apr-22 18:33N 58°09' E 010°56'1110.9
2015-Apr-22 17:33N 58°15' E 011°14'9 9.0
2015-Apr-22 16:33N 58°21' E 011°26'0 0.1
2015-Apr-22 15:29N 58°21' E 011°26'0 0.0
2015-Apr-22 14:23N 58°21' E 011°26'0 0.0
2015-Apr-22 13:14N 58°21' E 011°26'0 0.0
2015-Apr-22 12:29N 58°21' E 011°26'0 0.0
2015-Apr-22 11:32N 58°21' E 011°26'0 0.0
2015-Apr-22 10:32N 58°21' E 011°26'0 0.0
2015-Apr-22 09:26N 58°21' E 011°26'0 0.0
2015-Apr-22 08:32N 58°21' E 011°26'0 0.0
2015-Apr-22 07:23N 58°21' E 011°26'0 0.0
2015-Apr-22 06:32N 58°21' E 011°26'0 0.0
2015-Apr-22 05:32N 58°21' E 011°26'0 0.0
2015-Apr-22 04:26N 58°21' E 011°26'0 0.0
2015-Apr-22 03:32N 58°21' E 011°26'0 0.0
2015-Apr-22 02:32N 58°21' E 011°26'0 0.0
2015-Apr-22 01:17N 58°21' E 011°26'0 0.0
2015-Apr-22 00:32N 58°21' E 011°26'0 0.0
2015-Apr-21 23:26N 58°21' E 011°26'0 0.0
2015-Apr-21 22:32N 58°21' E 011°26'0 0.0
2015-Apr-21 21:32N 58°21' E 011°26'0 0.0
2015-Apr-21 20:32N 58°21' E 011°26'0 0.0
2015-Apr-21 19:32N 58°21' E 011°26'0 0.0
2015-Apr-21 18:32N 58°21' E 011°26'0 0.0
2015-Apr-21 17:32N 58°21' E 011°26'0 0.0
2015-Apr-21 16:23N 58°21' E 011°26'0 0.0
2015-Apr-21 15:32N 58°21' E 011°26'0 0.0
2015-Apr-21 14:32N 58°21' E 011°26'0 0.0
2015-Apr-21 13:32N 58°21' E 011°26'0 0.0
2015-Apr-21 12:32N 58°21' E 011°26'0 0.0
2015-Apr-21 11:32N 58°21' E 011°26'0 0.0
2015-Apr-21 10:32N 58°21' E 011°26'0 0.0
2015-Apr-21 09:32N 58°21' E 011°26'0 0.0
2015-Apr-21 08:32N 58°21' E 011°26'0 0.0
2015-Apr-21 07:32N 58°21' E 011°26'0 0.0
2015-Apr-21 06:29N 58°21' E 011°26'0 0.0
2015-Apr-21 05:29N 58°21' E 011°26'0 0.0
2015-Apr-21 04:31N 58°21' E 011°26'0 0.0
2015-Apr-21 03:32N 58°21' E 011°26'0 0.0
2015-Apr-21 02:29N 58°21' E 011°26'0 0.0
2015-Apr-21 00:29N 58°21' E 011°26'0 0.0
2015-Apr-20 23:29N 58°21' E 011°26'0 0.0
2015-Apr-20 22:32N 58°21' E 011°26'0 0.0
2015-Apr-20 21:16N 58°21' E 011°26'0 0.0
2015-Apr-20 20:32N 58°21' E 011°26'0 0.0
2015-Apr-20 19:32N 58°21' E 011°26'0 0.0
2015-Apr-20 18:26N 58°21' E 011°26'0 0.0
2015-Apr-20 17:32N 58°21' E 011°26'0 0.0
2015-Apr-20 16:32N 58°21' E 011°26'0 0.0
2015-Apr-20 15:28N 58°21' E 011°26'0 0.0
2015-Apr-20 14:32N 58°21' E 011°26'0 0.0
2015-Apr-20 13:17N 58°21' E 011°26'0 0.0
2015-Apr-20 12:28N 58°21' E 011°26'0 0.0
2015-Apr-20 11:29N 58°21' E 011°26'0 0.0
2015-Apr-20 10:29N 58°21' E 011°26'0 0.0
2015-Apr-20 09:31N 58°21' E 011°26'0 0.0
2015-Apr-20 08:28N 58°21' E 011°26'0 0.0
2015-Apr-20 07:31N 58°21' E 011°26'0 0.0
2015-Apr-20 06:32N 58°21' E 011°26'0 0.0
2015-Apr-20 05:28N 58°21' E 011°26'0 0.0
2015-Apr-20 04:31N 58°21' E 011°26'0 0.0
2015-Apr-20 03:31N 58°21' E 011°26'0 0.0
2015-Apr-20 02:31N 58°21' E 011°26'0 0.0
2015-Apr-20 01:13N 58°21' E 011°26'0 0.0
2015-Apr-20 00:28N 58°21' E 011°26'0 0.0
2015-Apr-19 23:19N 58°21' E 011°26'0 0.0
2015-Apr-19 22:31N 58°21' E 011°26'0 0.0
2015-Apr-19 21:28N 58°21' E 011°26'0 0.0
2015-Apr-19 20:31N 58°21' E 011°26'0 0.0
2015-Apr-19 19:31N 58°21' E 011°26'0 0.0
2015-Apr-19 18:31N 58°21' E 011°26'0 0.0
2015-Apr-19 17:28N 58°21' E 011°26'0 0.0
2015-Apr-19 16:28N 58°21' E 011°26'0 0.0
2015-Apr-19 15:28N 58°21' E 011°26'0 0.0
2015-Apr-19 14:28N 58°21' E 011°26'0 0.0
2015-Apr-19 13:16N 58°21' E 011°26'0 0.0
2015-Apr-19 12:28N 58°21' E 011°26'0 0.0
2015-Apr-19 11:26N 58°21' E 011°26'2 1.8
2015-Apr-19 10:33N 58°20' E 011°24'1111.1
2015-Apr-19 09:33N 58°11' E 011°12'0 0.1
2015-Apr-19 08:31N 58°11' E 011°12'0 0.0
2015-Apr-19 07:31N 58°11' E 011°12'0 0.0
2015-Apr-19 06:31N 58°11' E 011°12'0 0.0
2015-Apr-19 05:31N 58°11' E 011°12'0 0.0
2015-Apr-19 04:31N 58°11' E 011°12'0 0.0
2015-Apr-19 03:31N 58°11' E 011°12'0 0.0
2015-Apr-19 02:31N 58°11' E 011°12'0 0.0
2015-Apr-19 01:28N 58°11' E 011°12'0 0.0
2015-Apr-19 00:31N 58°11' E 011°12'0 0.0
2015-Apr-18 23:31N 58°11' E 011°12'0 0.0
2015-Apr-18 22:31N 58°11' E 011°12'0 0.0
2015-Apr-18 21:31N 58°11' E 011°12'0 0.0
2015-Apr-18 20:31N 58°11' E 011°12'0 0.0
2015-Apr-18 19:31N 58°11' E 011°12'0 0.0
2015-Apr-18 18:31N 58°11' E 011°12'0 0.0
2015-Apr-18 17:31N 58°11' E 011°12'0 0.0
2015-Apr-18 16:31N 58°11' E 011°12'0 0.0
2015-Apr-18 15:31N 58°11' E 011°12'0 0.0
2015-Apr-18 14:31N 58°11' E 011°12'0 0.0
2015-Apr-18 13:25N 58°11' E 011°12'0 0.0
2015-Apr-18 12:31N 58°11' E 011°12'0 0.0
2015-Apr-18 11:31N 58°11' E 011°12'  

Dump ship's entire track history